Time;durP1;ratioP1;P1;durP2;ratioP2;P2;SDS_P1;SDS_P2;PMS_P1;PMS_P2;Temp;Humidity;BMP_temperature;BMP_pressure;BME280_temperature;BME280_humidity;BME280_pressure;Samples;Min_cycle;Max_cycle;Signal;HPM_P1;HPM_P2
2021/11/15 00:00:36;;;;;;;71.17;38.73;;;7.10;99.90;;;;;;5029039;28;20885;-60
2021/11/15 00:03:02;;;;;;;68.57;38.87;;;7.10;99.90;;;;;;5029490;28;20239;-60
2021/11/15 00:05:28;;;;;;;70.03;39.73;;;7.10;99.90;;;;;;5044473;28;20562;-60
2021/11/15 00:07:54;;;;;;;78.10;40.70;;;7.10;99.90;;;;;;5048898;28;20875;-56
2021/11/15 00:10:19;;;;;;;72.63;42.63;;;7.10;99.90;;;;;;5049236;28;20178;-60
2021/11/15 00:12:51;;;;;;;73.27;41.20;;;7.10;99.90;;;;;;5049081;28;20236;-60
2021/11/15 00:15:16;;;;;;;72.70;39.83;;;7.10;99.90;;;;;;5048166;28;20570;-52
2021/11/15 00:17:42;;;;;;;65.40;40.13;;;7.00;99.90;;;;;;5049068;28;20470;-61
2021/11/15 00:20:09;;;;;;;70.70;40.40;;;7.10;99.90;;;;;;5049598;28;20174;-60
2021/11/15 00:22:35;;;;;;;69.60;38.57;;;7.00;99.90;;;;;;5049125;28;21155;-60
2021/11/15 00:25:01;;;;;;;81.30;43.00;;;7.10;99.90;;;;;;5044989;28;20464;-60
2021/11/15 00:27:26;;;;;;;89.90;43.23;;;7.10;99.90;;;;;;5049366;28;20510;-59
2021/11/15 00:29:52;;;;;;;73.80;39.60;;;6.90;99.90;;;;;;5047760;28;20429;-60
2021/11/15 00:32:18;;;;;;;75.97;42.30;;;6.90;99.90;;;;;;5039787;28;20194;-60
2021/11/15 00:34:44;;;;;;;81.13;40.27;;;6.90;99.90;;;;;;5051925;28;20478;-60
2021/11/15 00:37:09;;;;;;;79.30;42.50;;;6.90;99.90;;;;;;5057537;28;20629;-61
2021/11/15 00:39:35;;;;;;;71.47;39.63;;;6.80;99.90;;;;;;5049052;28;20697;-60
2021/11/15 00:42:00;;;;;;;83.17;41.30;;;6.80;99.90;;;;;;5047848;28;20186;-60
2021/11/15 00:44:26;;;;;;;81.87;41.20;;;6.70;99.90;;;;;;5048347;28;20210;-61
2021/11/15 00:46:52;;;;;;;76.43;40.00;;;6.70;99.90;;;;;;5048794;28;20185;-58
2021/11/15 00:49:17;;;;;;;70.50;39.30;;;6.80;99.90;;;;;;5031950;28;20342;-60
2021/11/15 00:51:43;;;;;;;84.60;42.53;;;6.80;99.90;;;;;;5046228;28;20844;-60
2021/11/15 00:54:09;;;;;;;75.60;38.93;;;6.70;99.90;;;;;;5047977;28;20170;-60
2021/11/15 00:56:34;;;;;;;73.77;38.50;;;6.60;99.90;;;;;;5046960;28;20251;-60
2021/11/15 00:59:00;;;;;;;74.00;40.47;;;6.60;99.90;;;;;;5049538;28;20857;-61
2021/11/15 01:01:25;;;;;;;72.40;38.87;;;6.60;99.90;;;;;;5038098;28;20592;-61
2021/11/15 01:03:51;;;;;;;78.93;41.23;;;6.50;99.90;;;;;;5033030;28;20940;-61
2021/11/15 01:06:17;;;;;;;74.87;39.40;;;6.50;99.90;;;;;;5043547;28;20220;-60
2021/11/15 01:08:43;;;;;;;69.67;40.83;;;6.50;99.90;;;;;;5052017;28;20158;-61
2021/11/15 01:11:09;;;;;;;82.97;41.13;;;6.40;99.90;;;;;;5041579;28;20512;-53
2021/11/15 01:13:35;;;;;;;73.53;39.80;;;6.40;99.90;;;;;;5032998;28;20167;-60
2021/11/15 01:16:01;;;;;;;76.72;40.60;;;6.40;99.90;;;;;;5039096;28;20420;-49
2021/11/15 01:18:27;;;;;;;76.03;40.00;;;6.50;99.90;;;;;;5052647;28;20208;-60
2021/11/15 01:20:52;;;;;;;73.90;39.37;;;6.50;99.90;;;;;;5052538;28;20397;-60
2021/11/15 01:23:19;;;;;;;70.80;40.13;;;6.50;99.90;;;;;;5044016;28;20186;-60
2021/11/15 01:25:45;;;;;;;76.85;40.95;;;6.50;99.90;;;;;;5032766;28;20612;-60
2021/11/15 01:28:11;;;;;;;80.03;41.53;;;6.50;99.90;;;;;;5032182;28;20273;-60
2021/11/15 01:30:37;;;;;;;69.37;38.57;;;6.50;99.90;;;;;;5034349;28;20631;-61
2021/11/15 01:33:03;;;;;;;79.65;40.08;;;6.50;99.90;;;;;;5043226;28;20170;-61
2021/11/15 01:35:29;;;;;;;77.22;40.78;;;6.50;99.90;;;;;;5042401;28;20645;-61
2021/11/15 01:37:55;;;;;;;68.17;38.23;;;6.50;99.90;;;;;;5040379;28;20193;-60
2021/11/15 01:40:26;;;;;;;81.78;41.90;;;6.50;99.90;;;;;;5038435;28;20182;-61
2021/11/15 01:42:52;;;;;;;76.83;40.77;;;6.50;99.90;;;;;;5051911;28;20264;-61
2021/11/15 01:45:23;;;;;;;76.63;40.30;;;6.50;99.90;;;;;;5051785;28;20526;-61
2021/11/15 01:47:54;;;;;;;76.75;40.47;;;6.50;99.90;;;;;;5051312;28;20492;-60
2021/11/15 01:50:22;;;;;;;70.13;39.95;;;6.50;99.90;;;;;;5045701;28;20282;-61
2021/11/15 01:52:48;;;;;;;78.85;40.97;;;6.50;99.90;;;;;;5043806;28;20230;-61
2021/11/15 01:55:16;;;;;;;73.50;38.90;;;6.50;99.90;;;;;;5051122;28;20628;-59
2021/11/15 01:57:43;;;;;;;69.50;37.57;;;6.50;99.90;;;;;;5051617;28;20182;-61
2021/11/15 02:00:14;;;;;;;68.97;39.53;;;6.60;99.90;;;;;;5050672;28;21209;-60
2021/11/15 02:02:40;;;;;;;68.63;38.90;;;6.60;99.90;;;;;;5031848;28;20472;-61
2021/11/15 02:05:06;;;;;;;73.63;38.20;;;6.60;99.90;;;;;;5031564;28;20260;-60
2021/11/15 02:07:32;;;;;;;68.43;36.70;;;6.60;99.90;;;;;;5049359;28;20433;-60
2021/11/15 02:09:57;;;;;;;70.27;38.13;;;6.60;99.90;;;;;;5050350;28;20488;-60
2021/11/15 02:12:25;;;;;;;67.27;36.70;;;6.60;99.90;;;;;;5051114;28;20999;-60
2021/11/15 02:14:52;;;;;;;70.00;36.27;;;6.60;99.90;;;;;;5051003;28;20211;-60
2021/11/15 02:17:18;;;;;;;67.47;37.03;;;6.60;99.90;;;;;;5050061;28;20440;-57
2021/11/15 02:19:45;;;;;;;64.27;37.07;;;6.70;99.90;;;;;;5050452;28;20921;-61
2021/11/15 02:22:11;;;;;;;62.80;37.03;;;6.60;99.90;;;;;;5049709;28;20821;-61
2021/11/15 02:24:37;;;;;;;67.67;36.80;;;6.60;99.90;;;;;;5050418;28;20508;-60
2021/11/15 02:27:04;;;;;;;65.93;36.40;;;6.60;99.90;;;;;;5051356;28;20684;-54
2021/11/15 02:29:30;;;;;;;59.08;36.83;;;6.60;99.90;;;;;;5040565;28;20232;-61
2021/11/15 02:31:56;;;;;;;57.67;35.90;;;6.60;99.90;;;;;;5031347;28;20182;-61
2021/11/15 02:34:21;;;;;;;62.03;37.13;;;6.70;99.90;;;;;;5043330;28;20652;-60
2021/11/15 02:36:47;;;;;;;61.43;33.90;;;6.70;99.90;;;;;;5040667;28;20183;-60
2021/11/15 02:39:13;;;;;;;57.73;34.97;;;6.70;99.90;;;;;;5049467;28;20548;-61
2021/11/15 02:41:39;;;;;;;57.87;33.40;;;6.80;99.90;;;;;;5055335;28;20210;-60
2021/11/15 02:44:06;;;;;;;59.90;33.67;;;6.80;99.90;;;;;;5050624;28;20455;-61
2021/11/15 02:46:34;;;;;;;55.13;33.87;;;6.70;99.90;;;;;;5050502;28;20634;-62
2021/11/15 02:49:00;;;;;;;61.45;37.03;;;6.70;99.90;;;;;;5050860;28;20393;-57
2021/11/15 02:51:26;;;;;;;59.87;34.43;;;6.70;99.90;;;;;;5049907;28;20260;-61
2021/11/15 02:53:51;;;;;;;56.43;33.83;;;6.80;99.90;;;;;;5048776;28;20425;-61
2021/11/15 02:56:17;;;;;;;56.63;33.20;;;6.80;99.90;;;;;;5050124;28;20253;-61
2021/11/15 02:58:43;;;;;;;59.33;36.07;;;6.80;99.90;;;;;;5033919;28;20190;-60
2021/11/15 03:01:13;;;;;;;57.40;35.27;;;6.80;99.90;;;;;;5030784;28;20270;-61
2021/11/15 03:03:40;;;;;;;54.50;33.90;;;6.90;99.90;;;;;;5041851;28;20966;-60
2021/11/15 03:06:06;;;;;;;53.47;33.33;;;6.90;99.90;;;;;;5050478;28;20445;-59
2021/11/15 03:08:32;;;;;;;53.37;33.70;;;6.90;99.90;;;;;;5049998;28;20452;-60
2021/11/15 03:11:00;;;;;;;46.73;31.43;;;6.90;99.90;;;;;;5050478;28;20411;-61
2021/11/15 03:13:32;;;;;;;51.13;31.90;;;6.90;99.90;;;;;;5049553;28;20432;-61
2021/11/15 03:15:59;;;;;;;45.93;31.50;;;7.00;99.90;;;;;;5050429;28;20405;-60
2021/11/15 03:18:27;;;;;;;52.80;32.77;;;7.00;99.90;;;;;;5048100;28;20464;-61
2021/11/15 03:21:17;;;;;;;47.40;31.00;;;7.00;99.90;;;;;;5049908;28;20440;-61
2021/11/15 03:23:45;;;;;;;50.37;31.50;;;7.00;99.90;;;;;;5044354;28;20551;-61
2021/11/15 03:26:11;;;;;;;47.23;30.03;;;7.10;99.90;;;;;;5050303;28;20772;-60
2021/11/15 03:28:43;;;;;;;49.10;30.80;;;7.10;99.90;;;;;;5049327;28;20421;-61
2021/11/15 03:31:20;;;;;;;47.97;31.03;;;7.00;99.90;;;;;;5049012;28;20405;-61
2021/11/15 03:33:47;;;;;;;51.50;29.60;;;7.00;99.90;;;;;;5048666;28;20440;-60
2021/11/15 03:36:12;;;;;;;51.73;32.10;;;7.00;99.90;;;;;;5050005;28;20907;-60
2021/11/15 03:38:40;;;;;;;47.17;29.47;;;7.10;99.90;;;;;;5054262;28;20462;-61
2021/11/15 03:41:05;;;;;;;49.60;31.17;;;7.10;99.90;;;;;;5060780;28;20209;-60
2021/11/15 03:43:31;;;;;;;43.50;27.00;;;7.10;99.90;;;;;;5053100;28;20463;-61
2021/11/15 03:45:57;;;;;;;44.80;28.30;;;7.10;99.90;;;;;;5060277;28;20656;-61
2021/11/15 03:48:24;;;;;;;43.30;27.10;;;7.10;99.90;;;;;;5034513;28;20721;-60
2021/11/15 03:50:54;;;;;;;40.90;26.40;;;7.10;99.90;;;;;;5040973;28;21071;-61
2021/11/15 03:53:22;;;;;;;41.50;26.83;;;7.10;99.90;;;;;;5028855;28;20414;-61
2021/11/15 03:55:48;;;;;;;45.97;28.27;;;7.10;99.90;;;;;;5039857;28;20457;-60
2021/11/15 03:58:13;;;;;;;45.63;26.30;;;7.10;99.90;;;;;;5045447;28;20447;-60
2021/11/15 04:00:40;;;;;;;43.77;28.23;;;7.10;99.90;;;;;;5047194;28;20263;-60
2021/11/15 04:03:15;;;;;;;40.70;26.30;;;7.10;99.90;;;;;;5049466;28;20266;-60
2021/11/15 04:05:45;;;;;;;42.53;26.47;;;7.10;99.90;;;;;;5047793;28;21008;-51
2021/11/15 04:08:11;;;;;;;39.97;26.10;;;7.10;99.90;;;;;;5049308;28;20516;-61
2021/11/15 04:10:40;;;;;;;45.27;26.33;;;7.10;99.90;;;;;;5047218;28;20460;-61
2021/11/15 04:13:30;;;;;;;42.40;27.80;;;7.10;99.90;;;;;;5049191;28;20430;-61
2021/11/15 04:16:00;;;;;;;43.37;27.80;;;7.10;99.90;;;;;;5048107;28;20435;-59
2021/11/15 04:18:30;;;;;;;42.13;26.70;;;7.10;99.90;;;;;;5032541;28;21269;-61
2021/11/15 04:20:58;;;;;;;41.17;27.63;;;7.10;99.90;;;;;;5038690;28;20453;-61
2021/11/15 04:23:24;;;;;;;43.67;27.97;;;7.10;99.90;;;;;;5038067;28;20482;-60
2021/11/15 04:25:49;;;;;;;44.33;27.40;;;7.10;99.90;;;;;;5058171;28;20427;-61
2021/11/15 04:28:16;;;;;;;41.83;27.30;;;7.10;99.90;;;;;;5031655;28;20422;-60
2021/11/15 04:30:42;;;;;;;42.17;26.80;;;7.10;99.90;;;;;;5030418;28;20183;-60
2021/11/15 04:33:08;;;;;;;42.90;26.43;;;7.10;99.90;;;;;;5038829;28;20413;-60
2021/11/15 04:35:35;;;;;;;42.30;27.27;;;7.20;99.90;;;;;;5048987;28;20495;-60
2021/11/15 04:38:01;;;;;;;39.93;25.73;;;7.10;99.90;;;;;;5036256;28;20418;-60
2021/11/15 04:40:26;;;;;;;44.90;27.50;;;7.20;99.90;;;;;;5050596;28;20432;-60
2021/11/15 04:42:52;;;;;;;39.53;26.40;;;7.10;99.90;;;;;;5038849;28;20426;-60
2021/11/15 04:45:18;;;;;;;40.17;26.20;;;7.10;99.90;;;;;;5038166;28;20556;-61
2021/11/15 04:47:43;;;;;;;47.97;27.50;;;7.10;99.90;;;;;;5049206;28;20733;-61
2021/11/15 04:50:10;;;;;;;37.73;25.80;;;7.10;99.90;;;;;;5053040;28;20181;-61
2021/11/15 04:52:36;;;;;;;34.77;25.03;;;7.10;99.90;;;;;;5051644;28;20222;-61
2021/11/15 04:55:04;;;;;;;45.47;26.57;;;7.10;99.90;;;;;;5051948;28;20413;-61
2021/11/15 04:57:30;;;;;;;42.33;27.30;;;7.20;99.90;;;;;;5051898;28;20837;-61
2021/11/15 04:59:59;;;;;;;42.50;27.07;;;7.10;99.90;;;;;;5052815;28;20854;-61
2021/11/15 05:02:25;;;;;;;40.10;26.23;;;7.20;99.90;;;;;;5052014;28;20428;-61
2021/11/15 05:04:51;;;;;;;41.17;27.50;;;7.10;99.90;;;;;;5052603;28;20548;-60
2021/11/15 05:07:16;;;;;;;42.70;26.10;;;7.10;99.90;;;;;;5052316;28;20397;-60
2021/11/15 05:09:42;;;;;;;41.40;26.50;;;7.10;99.90;;;;;;5052453;28;20787;-60
2021/11/15 05:12:08;;;;;;;44.20;26.90;;;7.10;99.90;;;;;;5053048;28;20274;-60
2021/11/15 05:14:33;;;;;;;40.57;26.40;;;7.10;99.90;;;;;;5051843;28;20652;-61
2021/11/15 05:16:59;;;;;;;42.33;28.00;;;7.10;99.90;;;;;;5052442;28;20169;-61
2021/11/15 05:19:25;;;;;;;39.20;25.10;;;7.10;99.90;;;;;;5038147;28;20175;-61
2021/11/15 05:21:51;;;;;;;39.93;26.30;;;7.20;99.90;;;;;;5032823;28;20410;-60
2021/11/15 05:24:16;;;;;;;40.40;25.30;;;7.20;99.90;;;;;;5045094;28;20244;-61
2021/11/15 05:26:42;;;;;;;45.30;27.40;;;7.20;99.90;;;;;;5052740;28;20613;-60
2021/11/15 05:29:07;;;;;;;40.63;25.83;;;7.20;99.90;;;;;;5046545;28;20181;-60
2021/11/15 05:31:34;;;;;;;41.17;26.00;;;7.20;99.90;;;;;;5032829;28;20730;-60
2021/11/15 05:34:01;;;;;;;42.73;26.73;;;7.10;99.90;;;;;;5045562;28;20216;-59
2021/11/15 05:36:27;;;;;;;43.60;25.80;;;7.10;99.90;;;;;;5049722;28;20467;-59
2021/11/15 05:38:52;;;;;;;43.53;25.80;;;7.10;99.90;;;;;;5054895;28;20887;-59
2021/11/15 05:41:18;;;;;;;41.60;25.90;;;7.10;99.90;;;;;;5055108;28;20231;-59
2021/11/15 05:43:43;;;;;;;43.03;26.70;;;7.10;99.90;;;;;;5039123;28;20776;-60
2021/11/15 05:46:09;;;;;;;43.80;27.07;;;7.10;99.90;;;;;;5037089;28;20190;-59
2021/11/15 05:48:35;;;;;;;39.83;26.17;;;7.10;99.90;;;;;;5039578;28;20170;-50
2021/11/15 05:51:00;;;;;;;44.53;27.33;;;7.10;99.90;;;;;;5037598;28;20470;-60
2021/11/15 05:53:26;;;;;;;42.63;26.80;;;7.20;99.90;;;;;;5051781;28;20883;-61
2021/11/15 05:55:52;;;;;;;38.27;25.63;;;7.10;99.90;;;;;;5051020;28;20179;-60
2021/11/15 05:58:17;;;;;;;41.20;25.40;;;7.10;99.90;;;;;;5051671;28;20582;-59
2021/11/15 06:00:43;;;;;;;36.40;25.57;;;7.10;99.90;;;;;;5045371;28;20245;-60
2021/11/15 06:03:09;;;;;;;41.07;27.77;;;7.10;99.90;;;;;;5031686;28;20182;-60
2021/11/15 06:05:35;;;;;;;40.33;26.37;;;7.10;99.90;;;;;;5033696;28;20274;-60
2021/11/15 06:08:00;;;;;;;38.83;25.53;;;7.00;99.90;;;;;;5051669;28;20186;-60
2021/11/15 06:10:26;;;;;;;43.13;26.50;;;7.00;99.90;;;;;;5050466;28;20871;-59
2021/11/15 06:12:52;;;;;;;46.70;27.57;;;7.00;99.90;;;;;;5050433;28;20232;-59
2021/11/15 06:15:20;;;;;;;38.43;25.90;;;6.90;99.90;;;;;;5051639;28;20205;-58
2021/11/15 06:17:45;;;;;;;41.92;27.23;;;6.90;99.90;;;;;;5047587;28;20443;-52
2021/11/15 06:20:13;;;;;;;44.90;28.07;;;6.80;99.90;;;;;;5051026;28;20506;-60
2021/11/15 06:22:39;;;;;;;42.90;28.23;;;6.80;99.90;;;;;;5044249;28;20182;-60
2021/11/15 06:25:06;;;;;;;42.77;28.13;;;6.80;99.90;;;;;;5048689;28;20472;-60
2021/11/15 06:27:32;;;;;;;46.35;28.33;;;6.80;99.90;;;;;;5049893;28;20448;-56
2021/11/15 06:29:57;;;;;;;47.33;30.53;;;6.70;99.90;;;;;;5051308;28;20170;-51
2021/11/15 06:32:23;;;;;;;49.80;28.47;;;6.70;99.90;;;;;;5050519;28;20694;-60
2021/11/15 06:34:49;;;;;;;50.67;30.40;;;6.70;99.90;;;;;;5034900;28;20191;-59
2021/11/15 06:37:14;;;;;;;49.33;28.37;;;6.70;99.90;;;;;;5041978;28;20432;-60
2021/11/15 06:39:40;;;;;;;44.27;28.33;;;6.70;99.90;;;;;;5051376;28;20720;-61
2021/11/15 06:42:06;;;;;;;47.80;28.40;;;6.70;99.90;;;;;;5054714;28;20182;-61
2021/11/15 06:44:33;;;;;;;45.40;29.13;;;6.70;99.90;;;;;;5047385;28;20489;-61
2021/11/15 06:46:59;;;;;;;45.50;27.43;;;6.60;99.90;;;;;;5052643;28;20443;-61
2021/11/15 06:49:26;;;;;;;46.27;29.83;;;6.60;99.90;;;;;;5048248;28;20429;-61
2021/11/15 06:51:52;;;;;;;54.88;28.70;;;6.60;99.90;;;;;;5051073;28;20472;-61
2021/11/15 06:54:17;;;;;;;47.93;27.90;;;6.60;99.90;;;;;;5051125;28;20189;-60
2021/11/15 06:56:44;;;;;;;43.70;27.43;;;6.60;99.90;;;;;;5045483;28;20528;-60
2021/11/15 06:59:10;;;;;;;44.28;28.70;;;6.50;99.90;;;;;;5047627;28;20201;-59
2021/11/15 07:01:36;;;;;;;46.37;27.97;;;6.60;99.90;;;;;;5044672;28;20197;-60
2021/11/15 07:04:06;;;;;;;45.65;28.10;;;6.60;99.90;;;;;;5045147;28;20506;-59
2021/11/15 07:06:33;;;;;;;43.27;27.20;;;6.60;99.90;;;;;;5045778;28;20571;-59
2021/11/15 07:08:58;;;;;;;46.15;27.40;;;6.50;99.90;;;;;;5049301;28;20478;-60
2021/11/15 07:11:24;;;;;;;43.47;27.30;;;6.60;99.90;;;;;;5035724;28;20646;-59
2021/11/15 07:13:50;;;;;;;48.53;29.15;;;6.60;99.90;;;;;;5037338;28;20241;-60
2021/11/15 07:16:16;;;;;;;42.43;27.13;;;6.60;99.90;;;;;;5043395;28;20183;-59
2021/11/15 07:18:42;;;;;;;42.73;27.90;;;6.70;99.90;;;;;;5048268;28;20435;-48
2021/11/15 07:21:08;;;;;;;46.10;27.37;;;6.70;99.90;;;;;;5045744;28;20183;-59
2021/11/15 07:23:34;;;;;;;44.57;27.00;;;6.70;99.90;;;;;;5048044;28;20573;-59
2021/11/15 07:25:59;;;;;;;39.28;28.30;;;6.70;99.90;;;;;;5047006;28;20440;-61
2021/11/15 07:28:26;;;;;;;41.10;26.17;;;6.70;99.90;;;;;;5043619;28;20205;-60
2021/11/15 07:30:55;;;;;;;41.97;27.13;;;6.70;99.90;;;;;;5044198;28;20961;-61
2021/11/15 07:33:26;;;;;;;48.92;26.95;;;6.70;99.90;;;;;;5041361;28;20432;-61
2021/11/15 07:35:52;;;;;;;41.28;27.75;;;6.60;99.90;;;;;;5047307;28;20671;-61
2021/11/15 07:38:18;;;;;;;40.53;27.20;;;6.60;99.90;;;;;;5037840;28;20190;-60
2021/11/15 07:40:44;;;;;;;39.50;26.47;;;6.60;99.90;;;;;;5048246;28;20419;-61
2021/11/15 07:43:10;;;;;;;41.78;25.15;;;6.70;99.90;;;;;;5048322;28;20429;-60
2021/11/15 07:45:36;;;;;;;44.30;27.07;;;6.60;99.90;;;;;;5049192;28;20213;-57
2021/11/15 07:48:02;;;;;;;39.67;25.50;;;6.70;99.90;;;;;;5054972;28;20805;-60
2021/11/15 07:50:28;;;;;;;39.42;26.35;;;6.70;99.90;;;;;;5040691;28;20522;-60
2021/11/15 07:52:53;;;;;;;42.57;25.83;;;6.70;99.90;;;;;;5046855;28;20178;-59
2021/11/15 07:55:19;;;;;;;45.53;27.00;;;6.70;99.90;;;;;;5047636;28;20503;-60
2021/11/15 07:57:45;;;;;;;44.03;28.37;;;6.60;99.90;;;;;;5048086;28;20166;-60
2021/11/15 08:00:21;;;;;;;40.95;26.67;;;6.70;99.90;;;;;;5048261;28;20181;-60
2021/11/15 08:02:48;;;;;;;39.72;25.40;;;6.70;99.90;;;;;;5045602;28;20193;-60
2021/11/15 08:05:16;;;;;;;41.10;26.42;;;6.70;99.90;;;;;;5028876;28;20291;-60
2021/11/15 08:07:42;;;;;;;40.97;25.35;;;6.80;99.90;;;;;;5027695;28;20210;-60
2021/11/15 08:10:10;;;;;;;36.60;25.63;;;6.80;99.90;;;;;;5028684;28;20662;-61
2021/11/15 08:12:41;;;;;;;37.90;25.67;;;6.90;99.90;;;;;;5028937;28;20175;-60
2021/11/15 08:15:09;;;;;;;40.00;26.10;;;6.90;99.90;;;;;;5046161;28;20174;-56
2021/11/15 08:17:42;;;;;;;41.77;26.70;;;6.90;99.90;;;;;;5048385;28;20740;-60
2021/11/15 08:20:13;;;;;;;41.17;25.58;;;7.00;99.90;;;;;;5047055;28;20433;-60
2021/11/15 08:22:38;;;;;;;40.90;25.65;;;6.90;99.90;;;;;;5046680;28;20261;-58
2021/11/15 08:25:30;;;;;;;39.87;26.37;;;6.90;99.90;;;;;;5048007;28;20281;-60
2021/11/15 08:27:59;;;;;;;40.97;24.42;;;6.90;99.90;;;;;;5048887;28;20274;-60
2021/11/15 08:30:25;;;;;;;38.00;26.10;;;6.90;99.90;;;;;;5048030;28;20197;-59
2021/11/15 08:32:52;;;;;;;37.47;24.93;;;7.00;99.90;;;;;;5048789;28;20482;-60
2021/11/15 08:35:20;;;;;;;40.77;27.10;;;7.00;99.90;;;;;;5036358;28;20437;-60
2021/11/15 08:38:10;;;;;;;40.45;26.05;;;7.00;99.90;;;;;;5028935;28;20477;-60
2021/11/15 08:40:36;;;;;;;40.37;24.90;;;7.10;99.90;;;;;;5043877;28;20270;-59
2021/11/15 08:43:01;;;;;;;42.77;27.17;;;7.10;99.90;;;;;;5061471;28;20487;-60
2021/11/15 08:45:27;;;;;;;37.43;24.57;;;7.10;99.90;;;;;;5035159;28;21091;-60
2021/11/15 08:47:52;;;;;;;39.90;26.63;;;7.20;99.90;;;;;;5028279;28;20183;-60
2021/11/15 08:50:18;;;;;;;40.80;26.13;;;7.20;99.90;;;;;;5034019;28;20194;-60
2021/11/15 08:52:43;;;;;;;38.87;24.67;;;7.20;99.90;;;;;;5027783;28;20226;-59
2021/11/15 08:55:09;;;;;;;38.60;24.73;;;7.10;99.90;;;;;;5030331;28;20229;-59
2021/11/15 08:57:35;;;;;;;36.67;23.13;;;7.20;99.90;;;;;;5028086;28;20187;-60
2021/11/15 09:00:00;;;;;;;36.83;23.60;;;7.20;99.90;;;;;;5029604;28;20437;-60
2021/11/15 09:02:26;;;;;;;35.60;22.50;;;7.20;99.90;;;;;;5037797;28;20517;-59
2021/11/15 09:04:51;;;;;;;36.53;23.10;;;7.20;99.90;;;;;;5045894;28;20607;-60
2021/11/15 09:07:17;;;;;;;36.70;24.17;;;7.20;99.90;;;;;;5039648;28;20217;-60
2021/11/15 09:09:43;;;;;;;37.33;23.57;;;7.20;99.90;;;;;;5028007;28;20280;-60
2021/11/15 09:12:09;;;;;;;35.17;23.47;;;7.30;99.90;;;;;;5034886;28;20588;-60
2021/11/15 09:14:36;;;;;;;36.00;22.87;;;7.40;99.90;;;;;;5028525;28;20182;-59
2021/11/15 09:17:03;;;;;;;37.83;24.50;;;7.40;99.90;;;;;;5040442;28;21087;-60
2021/11/15 09:19:29;;;;;;;35.03;23.47;;;7.40;99.90;;;;;;5029388;28;20424;-60
2021/11/15 09:21:56;;;;;;;39.70;24.23;;;7.50;99.90;;;;;;5045012;28;20429;-60
2021/11/15 09:24:23;;;;;;;40.77;23.00;;;7.60;99.90;;;;;;5048584;28;20253;-60
2021/11/15 09:26:49;;;;;;;39.10;26.33;;;7.60;99.90;;;;;;5037437;28;20440;-55
2021/11/15 09:29:17;;;;;;;51.70;32.70;;;7.70;99.90;;;;;;5040182;28;20429;-54
2021/11/15 09:31:43;;;;;;;48.43;27.40;;;7.70;99.90;;;;;;5034273;28;20424;-59
2021/11/15 09:34:08;;;;;;;34.33;22.07;;;7.70;99.90;;;;;;5038978;28;20750;-59
2021/11/15 09:36:34;;;;;;;35.80;24.30;;;7.60;99.90;;;;;;5034563;28;20182;-57
2021/11/15 09:39:00;;;;;;;37.40;24.20;;;7.60;99.90;;;;;;5031477;28;20183;-59
2021/11/15 09:41:27;;;;;;;33.13;22.00;;;7.70;99.90;;;;;;5043183;28;20179;-59
2021/11/15 09:43:54;;;;;;;33.33;21.97;;;7.80;99.90;;;;;;5048593;28;20539;-59
2021/11/15 09:46:23;;;;;;;36.10;22.77;;;7.80;99.90;;;;;;5030856;28;20410;-61
2021/11/15 09:48:51;;;;;;;34.47;23.03;;;7.90;99.90;;;;;;5045792;28;20429;-60
2021/11/15 09:51:18;;;;;;;32.70;21.23;;;7.90;99.90;;;;;;5051067;28;20571;-61
2021/11/15 09:53:45;;;;;;;31.30;21.07;;;7.90;99.90;;;;;;5049175;28;20444;-61
2021/11/15 09:56:14;;;;;;;31.63;22.30;;;7.90;99.90;;;;;;5039282;28;20747;-61
2021/11/15 09:58:41;;;;;;;31.23;21.20;;;7.90;99.90;;;;;;5049771;28;21161;-60
2021/11/15 10:01:07;;;;;;;32.03;20.90;;;8.00;99.90;;;;;;5045178;28;20935;-61
2021/11/15 10:03:33;;;;;;;33.80;22.00;;;8.00;99.90;;;;;;5030069;28;20429;-61
2021/11/15 10:06:00;;;;;;;35.87;23.10;;;7.90;99.90;;;;;;5046586;28;20437;-60
2021/11/15 10:08:25;;;;;;;32.50;22.50;;;8.00;99.90;;;;;;5038639;28;20425;-59
2021/11/15 10:10:55;;;;;;;32.40;21.50;;;8.00;99.90;;;;;;5050688;28;20408;-60
2021/11/15 10:13:30;;;;;;;35.20;21.00;;;8.00;99.90;;;;;;5050482;28;20182;-57
2021/11/15 10:16:11;;;;;;;29.13;19.50;;;8.10;99.90;;;;;;5050815;28;20408;-59
2021/11/15 10:18:45;;;;;;;31.73;21.10;;;8.10;99.90;;;;;;5049929;28;20417;-60
2021/11/15 10:21:25;;;;;;;30.30;20.10;;;8.00;99.90;;;;;;5050854;28;20412;-60
2021/11/15 10:23:58;;;;;;;32.17;21.03;;;8.10;99.90;;;;;;5044317;28;20482;-60
2021/11/15 10:26:31;;;;;;;27.17;18.07;;;8.00;99.90;;;;;;5051056;28;20520;-59
2021/11/15 10:29:01;;;;;;;26.73;18.33;;;7.80;99.90;;;;;;5048631;28;20444;-60
2021/11/15 10:31:34;;;;;;;29.43;20.57;;;7.90;99.90;;;;;;5049539;28;20397;-60
2021/11/15 10:34:02;;;;;;;33.90;19.30;;;7.90;99.90;;;;;;5045435;28;20839;-58
2021/11/15 10:36:48;;;;;;;27.80;19.97;;;7.90;99.90;;;;;;5030513;28;20500;-60
2021/11/15 10:39:15;;;;;;;28.87;19.03;;;8.00;99.90;;;;;;5042732;28;20444;-60
2021/11/15 10:41:41;;;;;;;28.00;18.30;;;8.00;99.90;;;;;;5054953;28;20428;-60
2021/11/15 10:44:09;;;;;;;27.97;19.67;;;8.00;99.90;;;;;;5052677;28;20882;-60
2021/11/15 10:46:37;;;;;;;28.83;20.13;;;8.00;99.90;;;;;;5049003;28;20178;-59
2021/11/15 10:49:08;;;;;;;26.83;19.60;;;8.00;99.90;;;;;;5043677;28;20818;-60
2021/11/15 10:51:51;;;;;;;30.00;19.03;;;8.00;99.90;;;;;;5032760;28;20461;-60
2021/11/15 10:57:32;;;;;;;24.53;18.17;;;8.10;99.90;;;;;;5050043;28;20493;-60
2021/11/15 11:00:11;;;;;;;28.20;18.30;;;8.10;99.90;;;;;;5046667;28;20517;-61
2021/11/15 11:03:09;;;;;;;23.60;17.07;;;8.20;99.90;;;;;;5032971;28;20764;-60
2021/11/15 11:05:37;;;;;;;25.97;19.10;;;8.10;99.90;;;;;;5036278;28;20472;-60
2021/11/15 11:08:14;;;;;;;28.00;19.50;;;8.10;99.90;;;;;;5031880;28;21289;-60
2021/11/15 11:10:47;;;;;;;27.00;18.57;;;8.10;99.90;;;;;;5048440;28;20433;-60
2021/11/15 11:13:15;;;;;;;23.83;18.70;;;8.20;99.90;;;;;;5032374;28;20434;-60
2021/11/15 11:15:48;;;;;;;28.13;19.50;;;8.10;99.90;;;;;;5027460;28;20476;-60
2021/11/15 11:18:35;;;;;;;23.93;17.50;;;8.20;99.90;;;;;;5045061;28;20438;-60
2021/11/15 11:26:28;;;;;;;25.60;18.07;;;8.10;99.90;;;;;;5033301;28;20775;-60
2021/11/15 11:28:58;;;;;;;24.97;18.67;;;8.20;99.90;;;;;;5048938;28;20425;-60
2021/11/15 11:31:28;;;;;;;24.70;16.87;;;8.30;99.90;;;;;;5049158;28;20512;-60
2021/11/15 11:33:54;;;;;;;24.83;18.60;;;8.20;99.90;;;;;;5048664;28;20782;-59
2021/11/15 11:36:20;;;;;;;26.23;18.63;;;8.30;99.90;;;;;;5049052;28;20424;-59
2021/11/15 11:38:46;;;;;;;26.50;18.87;;;8.30;99.90;;;;;;5040269;28;20433;-60
2021/11/15 11:41:13;;;;;;;29.00;19.17;;;8.30;99.90;;;;;;5033843;28;20785;-60
2021/11/15 11:43:39;;;;;;;25.37;19.77;;;8.40;99.90;;;;;;5047582;28;20424;-59
2021/11/15 11:46:05;;;;;;;23.17;17.40;;;8.50;99.90;;;;;;5048603;28;20428;-60
2021/11/15 11:48:32;;;;;;;25.97;17.67;;;8.40;99.90;;;;;;5048495;28;20427;-51
2021/11/15 11:50:59;;;;;;;23.00;18.43;;;8.30;99.90;;;;;;5035165;28;20222;-60
2021/11/15 11:53:29;;;;;;;26.10;19.30;;;8.20;99.90;;;;;;5043806;28;20422;-61
2021/11/15 11:55:55;;;;;;;25.00;19.57;;;8.30;99.90;;;;;;5029444;28;20441;-60
2021/11/15 11:58:35;;;;;;;23.17;17.00;;;8.20;99.90;;;;;;5028728;28;20425;-59
2021/11/15 12:01:04;;;;;;;28.67;17.80;;;8.30;99.90;;;;;;5039491;28;20522;-59
2021/11/15 12:03:32;;;;;;;24.27;18.80;;;8.40;99.90;;;;;;5028875;28;20923;-60
2021/11/15 12:05:59;;;;;;;28.30;19.30;;;8.40;99.90;;;;;;5038556;28;20473;-60
2021/11/15 12:08:51;;;;;;;23.97;17.23;;;8.40;99.90;;;;;;5048406;28;20413;-60
2021/11/15 12:11:29;;;;;;;28.97;20.33;;;8.40;99.90;;;;;;5047254;28;20435;-60
2021/11/15 12:13:56;;;;;;;26.60;17.70;;;8.40;99.90;;;;;;5037257;28;20732;-59
2021/11/15 12:16:22;;;;;;;25.77;19.87;;;8.40;99.90;;;;;;5047847;28;20919;-60
2021/11/15 12:18:58;;;;;;;25.50;19.00;;;8.40;99.90;;;;;;5029327;28;20452;-60
2021/11/15 12:21:32;;;;;;;24.57;17.90;;;8.50;99.90;;;;;;5047419;28;20211;-60
2021/11/15 12:24:04;;;;;;;25.57;18.77;;;8.60;99.90;;;;;;5040568;28;20409;-61
2021/11/15 12:26:56;;;;;;;28.43;19.60;;;8.60;99.90;;;;;;5033873;28;21285;-60
2021/11/15 12:29:31;;;;;;;22.97;17.70;;;8.50;99.90;;;;;;5037543;28;20447;-60
2021/11/15 12:32:00;;;;;;;24.83;18.63;;;8.50;99.90;;;;;;5046233;28;20420;-60
2021/11/15 12:34:28;;;;;;;25.57;19.30;;;8.50;99.90;;;;;;5044674;28;20412;-60
2021/11/15 12:36:56;;;;;;;25.83;19.13;;;8.60;99.90;;;;;;5048372;28;20981;-60
2021/11/15 12:39:24;;;;;;;30.77;19.87;;;8.70;99.90;;;;;;5041685;28;20499;-60
2021/11/15 12:41:52;;;;;;;23.37;18.97;;;8.80;99.90;;;;;;5048457;28;20417;-55
2021/11/15 12:44:23;;;;;;;25.30;19.10;;;8.70;99.90;;;;;;5059628;28;20960;-61
2021/11/15 12:46:54;;;;;;;28.30;19.43;;;8.70;99.90;;;;;;5029183;28;20492;-61